Time;durP1;ratioP1;P1;durP2;ratioP2;P2;SDS_P1;SDS_P2;PMS_P1;PMS_P2;Temp;Humidity;BMP_temperature;BMP_pressure;BME280_temperature;BME280_humidity;BME280_pressure;Samples;Min_cycle;Max_cycle;Signal;HPM_P1;HPM_P2
2023/12/01 00:02:05;;;;;;;38.47;17.87;;;;;;;;;;10449121;28;20470;-68
2023/12/01 00:07:05;;;;;;;44.58;20.17;;;;;;;;;;10449458;28;20188;-68
2023/12/01 00:12:06;;;;;;;38.17;19.25;;;;;;;;;;10461391;28;20718;-69
2023/12/01 00:17:06;;;;;;;51.07;21.77;;;;;;;;;;10457397;28;20738;-68
2023/12/01 00:22:07;;;;;;;54.97;23.23;;;;;;;;;;10456614;28;20196;-69
2023/12/01 00:27:07;;;;;;;45.93;20.07;;;;;;;;;;10436129;23;20275;-68
2023/12/01 00:32:07;;;;;;;43.83;20.27;;;;;;;;;;10415458;28;20691;-67
2023/12/01 00:37:08;;;;;;;49.77;21.83;;;;;;;;;;10415742;28;20250;-67
2023/12/01 00:42:09;;;;;;;74.33;28.57;;;;;;;;;;10415182;28;20228;-67
2023/12/01 00:47:09;;;;;;;41.37;19.40;;;;;;;;;;10410877;28;20209;-67
2023/12/01 00:52:09;;;;;;;43.73;19.60;;;;;;;;;;10414942;28;20227;-69
2023/12/01 00:57:10;;;;;;;43.07;19.27;;;;;;;;;;10414575;28;20470;-68
2023/12/01 01:02:10;;;;;;;49.27;19.67;;;;;;;;;;10419111;28;20240;-69
2023/12/01 01:07:10;;;;;;;43.67;19.50;;;;;;;;;;10425847;28;20204;-67
2023/12/01 01:12:10;;;;;;;42.90;19.80;;;;;;;;;;10425612;28;20956;-66
2023/12/01 01:17:10;;;;;;;42.37;19.03;;;;;;;;;;10414041;28;20243;-69
2023/12/01 01:22:11;;;;;;;38.07;17.87;;;;;;;;;;10429849;28;20204;-69
2023/12/01 01:27:11;;;;;;;36.17;16.77;;;;;;;;;;10413256;28;20834;-69
2023/12/01 01:32:11;;;;;;;37.03;16.50;;;;;;;;;;10413180;28;20220;-69
2023/12/01 01:37:12;;;;;;;35.83;15.73;;;;;;;;;;10412695;28;21080;-69
2023/12/01 01:42:12;;;;;;;33.75;15.98;;;;;;;;;;10417626;28;20188;-67
2023/12/01 01:47:12;;;;;;;34.00;14.83;;;;;;;;;;10412765;28;20262;-69
2023/12/01 01:52:13;;;;;;;34.00;16.30;;;;;;;;;;10412495;28;20541;-69
2023/12/01 01:57:13;;;;;;;32.80;15.80;;;;;;;;;;10412146;28;20204;-69
2023/12/01 02:02:14;;;;;;;34.80;15.50;;;;;;;;;;10429165;28;20195;-69
2023/12/01 02:07:27;;;;;;;32.13;15.20;;;;;;;;;;10409637;28;20829;-69
2023/12/01 02:12:27;;;;;;;51.40;26.67;;;;;;;;;;10411646;28;20599;-69
2023/12/01 02:17:28;;;;;;;37.00;17.93;;;;;;;;;;10413945;28;20205;-68
2023/12/01 02:22:28;;;;;;;38.17;16.63;;;;;;;;;;10413030;28;20215;-69
2023/12/01 02:27:28;;;;;;;33.90;16.23;;;;;;;;;;10410669;28;20928;-69
2023/12/01 02:32:28;;;;;;;32.93;16.67;;;;;;;;;;10411177;28;20636;-69
2023/12/01 02:37:29;;;;;;;28.50;14.50;;;;;;;;;;10414602;28;20937;-66
2023/12/01 02:42:29;;;;;;;30.17;15.13;;;;;;;;;;10410188;28;20443;-69
2023/12/01 02:47:29;;;;;;;28.97;14.67;;;;;;;;;;10409879;28;20220;-69
2023/12/01 02:52:29;;;;;;;36.13;17.50;;;;;;;;;;10409826;28;20304;-68
2023/12/01 02:57:30;;;;;;;29.67;14.37;;;;;;;;;;10414040;28;20707;-69
2023/12/01 03:02:30;;;;;;;31.00;14.50;;;;;;;;;;10408758;28;20197;-69
2023/12/01 03:07:30;;;;;;;33.37;15.27;;;;;;;;;;10408155;28;20226;-69
2023/12/01 03:12:31;;;;;;;26.53;12.97;;;;;;;;;;10409670;28;20263;-69
2023/12/01 03:17:31;;;;;;;25.93;13.33;;;;;;;;;;10413708;28;20211;-69
2023/12/01 03:22:31;;;;;;;25.43;12.90;;;;;;;;;;10409751;28;20207;-68
2023/12/01 03:27:32;;;;;;;27.90;12.30;;;;;;;;;;10408956;28;20232;-68
2023/12/01 03:32:32;;;;;;;25.33;12.70;;;;;;;;;;10409207;28;20212;-69
2023/12/01 03:37:32;;;;;;;27.63;12.83;;;;;;;;;;10413045;28;20681;-69
2023/12/01 03:42:32;;;;;;;22.83;11.80;;;;;;;;;;10408645;28;20521;-69
2023/12/01 03:47:35;;;;;;;32.50;12.27;;;;;;;;;;10410130;28;20231;-68
2023/12/01 03:52:35;;;;;;;22.53;11.03;;;;;;;;;;10415086;28;20265;-68
2023/12/01 03:57:39;;;;;;;20.63;10.27;;;;;;;;;;10412220;28;20201;-69
2023/12/01 04:02:41;;;;;;;23.30;10.97;;;;;;;;;;10409603;28;20223;-69
2023/12/01 04:07:44;;;;;;;17.17;10.10;;;;;;;;;;10408515;28;20315;-69
2023/12/01 04:12:45;;;;;;;22.17;11.03;;;;;;;;;;10416278;28;20829;-69
2023/12/01 04:17:48;;;;;;;25.87;11.23;;;;;;;;;;10407834;28;20215;-69
2023/12/01 04:22:53;;;;;;;23.10;9.37;;;;;;;;;;10408823;28;20188;-69
2023/12/01 04:27:53;;;;;;;24.17;11.87;;;;;;;;;;10408703;28;20201;-68
2023/12/01 04:32:54;;;;;;;22.10;10.47;;;;;;;;;;10415655;28;20216;-68
2023/12/01 04:37:55;;;;;;;21.10;11.47;;;;;;;;;;10408976;28;20196;-69
2023/12/01 04:42:56;;;;;;;21.07;11.07;;;;;;;;;;10408500;28;20212;-68
2023/12/01 04:47:57;;;;;;;18.20;9.97;;;;;;;;;;10419500;28;20683;-68
2023/12/01 04:52:58;;;;;;;22.20;10.60;;;;;;;;;;10411141;28;20213;-68
2023/12/01 04:57:58;;;;;;;19.77;10.57;;;;;;;;;;10420280;28;20193;-69
2023/12/01 05:03:04;;;;;;;20.83;9.93;;;;;;;;;;10415468;28;20204;-69
2023/12/01 05:08:05;;;;;;;22.97;10.63;;;;;;;;;;10423248;28;20196;-69
2023/12/01 05:13:06;;;;;;;18.53;7.70;;;;;;;;;;10421189;28;20231;-69
2023/12/01 05:18:07;;;;;;;20.40;10.20;;;;;;;;;;10414935;28;20579;-69
2023/12/01 05:23:10;;;;;;;15.97;9.67;;;;;;;;;;10414752;28;20239;-69
2023/12/01 05:28:11;;;;;;;17.17;9.57;;;;;;;;;;10421471;28;20192;-69
2023/12/01 05:33:11;;;;;;;19.10;9.57;;;;;;;;;;10414671;28;20798;-69
2023/12/01 05:38:11;;;;;;;18.80;9.23;;;;;;;;;;10414436;28;20205;-69
2023/12/01 05:43:13;;;;;;;19.03;9.70;;;;;;;;;;10414082;28;20565;-69
2023/12/01 05:48:13;;;;;;;15.77;8.60;;;;;;;;;;10420841;28;20196;-69
2023/12/01 05:53:13;;;;;;;16.63;8.50;;;;;;;;;;10413745;28;20228;-69
2023/12/01 05:58:13;;;;;;;14.75;7.60;;;;;;;;;;10413308;28;20262;-69
2023/12/01 06:03:14;;;;;;;17.73;8.83;;;;;;;;;;10413468;28;20220;-69
2023/12/01 06:08:14;;;;;;;16.35;8.88;;;;;;;;;;10419586;28;20512;-69
2023/12/01 06:13:14;;;;;;;20.83;9.97;;;;;;;;;;10412466;28;20220;-69
2023/12/01 06:18:14;;;;;;;21.97;9.67;;;;;;;;;;10415070;28;20321;-69
2023/12/01 06:23:15;;;;;;;28.90;15.47;;;;;;;;;;10412355;28;20239;-69
2023/12/01 06:28:15;;;;;;;25.70;16.63;;;;;;;;;;10419136;28;20204;-69
2023/12/01 06:33:16;;;;;;;19.83;9.97;;;;;;;;;;10411759;28;20695;-69
2023/12/01 06:38:16;;;;;;;17.63;10.80;;;;;;;;;;10411646;28;20329;-68
2023/12/01 06:43:16;;;;;;;20.80;10.20;;;;;;;;;;10414122;28;20268;-68
2023/12/01 06:48:17;;;;;;;19.93;9.10;;;;;;;;;;10414615;28;20200;-69
2023/12/01 06:53:17;;;;;;;16.83;9.43;;;;;;;;;;10414415;28;20228;-69
2023/12/01 06:58:17;;;;;;;17.13;9.57;;;;;;;;;;10410941;28;20204;-69
2023/12/01 07:03:18;;;;;;;14.07;9.13;;;;;;;;;;10417967;28;20220;-68
2023/12/01 07:08:19;;;;;;;16.80;8.87;;;;;;;;;;10410535;28;20212;-69
2023/12/01 07:13:19;;;;;;;13.40;8.70;;;;;;;;;;10410812;28;20331;-69
2023/12/01 07:18:19;;;;;;;17.40;8.73;;;;;;;;;;10409975;28;20306;-69
2023/12/01 07:23:19;;;;;;;17.73;8.77;;;;;;;;;;10417378;28;20475;-69
2023/12/01 07:28:24;;;;;;;13.53;7.83;;;;;;;;;;10410309;28;20714;-69
2023/12/01 07:33:39;;;;;;;19.40;9.57;;;;;;;;;;10410025;28;20223;-69
2023/12/01 07:38:40;;;;;;;14.70;8.43;;;;;;;;;;10410199;28;20193;-68
2023/12/01 07:43:43;;;;;;;15.60;8.63;;;;;;;;;;10417253;28;20216;-69
2023/12/01 07:48:43;;;;;;;20.20;10.27;;;;;;;;;;10409517;28;20619;-68
2023/12/01 07:53:44;;;;;;;20.57;9.80;;;;;;;;;;10410154;28;20297;-68
2023/12/01 07:58:44;;;;;;;16.47;8.80;;;;;;;;;;10405337;28;20188;-69
2023/12/01 08:03:46;;;;;;;15.60;8.53;;;;;;;;;;10408345;28;20540;-68
2023/12/01 08:08:46;;;;;;;15.50;8.47;;;;;;;;;;10408262;28;20530;-68
2023/12/01 08:13:47;;;;;;;17.90;8.80;;;;;;;;;;10407859;28;20224;-68
2023/12/01 08:18:47;;;;;;;16.77;9.27;;;;;;;;;;10415104;28;20333;-68
2023/12/01 08:23:49;;;;;;;16.53;9.53;;;;;;;;;;10407615;28;20319;-68
2023/12/01 08:28:49;;;;;;;15.47;9.00;;;;;;;;;;10407556;28;20227;-69
2023/12/01 08:33:49;;;;;;;20.13;10.57;;;;;;;;;;10413946;28;20261;-68
2023/12/01 08:38:52;;;;;;;17.50;9.47;;;;;;;;;;10425762;28;20197;-66
2023/12/01 08:44:05;;;;;;;17.90;9.43;;;;;;;;;;10419263;28;20205;-69
2023/12/01 08:49:08;;;;;;;18.37;10.13;;;;;;;;;;10415809;28;20200;-68
2023/12/01 08:54:08;;;;;;;22.73;10.93;;;;;;;;;;10414395;28;20228;-68
2023/12/01 08:59:09;;;;;;;21.03;10.80;;;;;;;;;;10415783;28;20841;-68
2023/12/01 09:04:09;;;;;;;17.73;10.77;;;;;;;;;;10413195;28;20209;-67
2023/12/01 09:09:09;;;;;;;17.40;11.23;;;;;;;;;;10414212;28;20200;-68
2023/12/01 09:14:09;;;;;;;25.67;12.97;;;;;;;;;;10413740;28;20479;-68
2023/12/01 09:19:10;;;;;;;32.77;17.80;;;;;;;;;;10421071;28;20191;-68
2023/12/01 09:24:10;;;;;;;34.43;18.70;;;;;;;;;;10412682;28;20267;-68
2023/12/01 09:29:11;;;;;;;33.50;19.20;;;;;;;;;;10413462;28;20228;-68
2023/12/01 09:34:11;;;;;;;39.80;19.53;;;;;;;;;;10414387;28;20232;-68
2023/12/01 09:39:11;;;;;;;31.97;19.20;;;;;;;;;;10417910;28;20290;-68
2023/12/01 09:44:11;;;;;;;39.87;19.77;;;;;;;;;;10411740;28;21489;-67
2023/12/01 09:49:11;;;;;;;39.07;20.40;;;;;;;;;;10413008;28;21091;-67
2023/12/01 09:54:12;;;;;;;40.93;21.10;;;;;;;;;;10420068;28;20248;-68
2023/12/01 09:59:15;;;;;;;46.27;24.03;;;;;;;;;;10413010;28;20188;-67
2023/12/01 10:04:16;;;;;;;60.70;28.47;;;;;;;;;;10412111;28;20341;-67
2023/12/01 10:09:25;;;;;;;82.03;36.77;;;;;;;;;;10410642;28;20797;-67
2023/12/01 10:14:25;;;;;;;90.07;37.00;;;;;;;;;;10418542;28;20243;-67
2023/12/01 10:19:25;;;;;;;82.50;36.07;;;;;;;;;;10414723;28;20181;-68
2023/12/01 10:24:26;;;;;;;73.77;35.63;;;;;;;;;;10411329;28;20886;-67
2023/12/01 10:29:30;;;;;;;91.87;37.60;;;;;;;;;;10413952;28;21012;-68
2023/12/01 10:34:30;;;;;;;85.50;34.83;;;;;;;;;;10414957;28;20725;-68
2023/12/01 10:39:31;;;;;;;80.83;36.80;;;;;;;;;;10408857;28;20190;-68
2023/12/01 10:44:31;;;;;;;82.87;37.20;;;;;;;;;;10409770;28;20588;-68
2023/12/01 10:49:34;;;;;;;89.63;37.85;;;;;;;;;;10409748;28;20193;-68
2023/12/01 10:54:35;;;;;;;91.73;37.80;;;;;;;;;;10416491;28;20221;-68
2023/12/01 10:59:37;;;;;;;91.07;38.53;;;;;;;;;;10409524;28;20181;-68
2023/12/01 11:04:37;;;;;;;92.20;36.97;;;;;;;;;;10409669;28;20241;-67
2023/12/01 11:09:45;;;;;;;103.93;40.23;;;;;;;;;;10411563;28;20279;-67
2023/12/01 11:20:54;;;;;;;92.37;36.97;;;;;;;;;;10405575;28;20211;-68
2023/12/01 11:25:55;;;;;;;94.73;36.67;;;;;;;;;;10407215;28;20323;-67
2023/12/01 11:30:58;;;;;;;88.63;35.03;;;;;;;;;;10417839;28;20251;-68
2023/12/01 11:36:17;;;;;;;94.47;39.17;;;;;;;;;;10405348;28;20204;-68
2023/12/01 11:41:23;;;;;;;96.57;39.77;;;;;;;;;;10407762;28;20235;-68
2023/12/01 11:46:23;;;;;;;87.93;37.00;;;;;;;;;;10403327;28;20314;-68
2023/12/01 11:51:23;;;;;;;80.87;36.10;;;;;;;;;;10406656;28;20216;-67
2023/12/01 11:56:27;;;;;;;76.43;35.27;;;;;;;;;;10408057;28;20224;-67
2023/12/01 12:01:28;;;;;;;79.03;35.20;;;;;;;;;;10391830;28;20447;-68
2023/12/01 12:06:28;;;;;;;99.57;44.43;;;;;;;;;;10414503;28;20208;-68
2023/12/01 12:11:29;;;;;;;77.27;36.40;;;;;;;;;;10417733;28;20234;-68
2023/12/01 12:16:29;;;;;;;78.10;35.00;;;;;;;;;;10413245;28;20703;-68
2023/12/01 12:21:30;;;;;;;83.73;36.77;;;;;;;;;;10414851;28;20242;-68
2023/12/01 12:26:31;;;;;;;72.43;33.83;;;;;;;;;;10414443;28;20931;-68
2023/12/01 12:31:32;;;;;;;71.20;33.40;;;;;;;;;;10414194;28;20230;-68
2023/12/01 12:36:32;;;;;;;67.50;32.63;;;;;;;;;;10414142;28;20231;-68
2023/12/01 12:41:34;;;;;;;73.73;33.33;;;;;;;;;;10413560;28;20724;-68
2023/12/01 12:46:35;;;;;;;68.30;32.43;;;;;;;;;;10419479;28;20560;-67
2023/12/01 12:51:36;;;;;;;66.67;30.77;;;;;;;;;;10413439;28;20224;-68
2023/12/01 12:56:36;;;;;;;75.53;33.97;;;;;;;;;;10413779;28;20659;-68
2023/12/01 13:01:36;;;;;;;82.03;34.77;;;;;;;;;;10412460;28;20207;-68
2023/12/01 13:06:36;;;;;;;82.43;37.87;;;;;;;;;;10417768;28;20307;-68
2023/12/01 13:11:36;;;;;;;92.90;37.73;;;;;;;;;;10456230;22;20296;-66
2023/12/01 13:16:37;;;;;;;89.83;35.00;;;;;;;;;;10450311;28;20200;-66
2023/12/01 13:21:37;;;;;;;105.10;37.93;;;;;;;;;;10451738;28;20215;-66
2023/12/01 13:26:37;;;;;;;94.87;39.30;;;;;;;;;;10452623;28;20196;-66
2023/12/01 13:31:37;;;;;;;89.40;37.47;;;;;;;;;;10459367;28;20851;-66
2023/12/01 13:36:37;;;;;;;85.33;35.50;;;;;;;;;;10450006;28;20215;-66
2023/12/01 13:41:37;;;;;;;80.50;34.73;;;;;;;;;;10450630;28;20204;-66
2023/12/01 13:46:38;;;;;;;82.50;36.20;;;;;;;;;;10450702;28;20196;-66
2023/12/01 13:51:38;;;;;;;86.87;36.23;;;;;;;;;;10456584;28;20207;-67
2023/12/01 13:56:38;;;;;;;85.67;36.30;;;;;;;;;;10459754;28;20187;-66
2023/12/01 14:01:39;;;;;;;82.67;35.53;;;;;;;;;;10461907;28;20233;-66
2023/12/01 14:06:39;;;;;;;88.90;35.57;;;;;;;;;;10451566;28;20196;-67
2023/12/01 14:11:39;;;;;;;85.83;35.53;;;;;;;;;;10449155;28;20232;-66
2023/12/01 14:16:40;;;;;;;95.87;37.67;;;;;;;;;;10437659;28;20261;-65
2023/12/01 14:21:40;;;;;;;98.97;37.27;;;;;;;;;;10453942;28;21181;-64
2023/12/01 14:26:40;;;;;;;91.17;36.40;;;;;;;;;;10455191;28;20945;-65
2023/12/01 14:31:40;;;;;;;98.97;37.10;;;;;;;;;;10448617;28;20220;-66
2023/12/01 14:36:41;;;;;;;105.80;40.83;;;;;;;;;;10451330;28;20188;-66
2023/12/01 14:41:41;;;;;;;94.27;38.17;;;;;;;;;;10450832;28;20310;-70
2023/12/01 14:46:42;;;;;;;107.00;40.47;;;;;;;;;;10439404;28;20189;-67
2023/12/01 14:51:43;;;;;;;103.80;42.03;;;;;;;;;;10449708;28;20320;-67
2023/12/01 14:56:43;;;;;;;100.97;37.83;;;;;;;;;;10452297;28;20184;-66
2023/12/01 15:01:44;;;;;;;116.57;44.60;;;;;;;;;;10461022;28;20733;-66
2023/12/01 15:06:44;;;;;;;104.23;39.80;;;;;;;;;;10459407;28;20504;-66
2023/12/01 15:11:47;;;;;;;101.50;39.20;;;;;;;;;;10447051;28;20277;-66
2023/12/01 15:16:47;;;;;;;104.43;40.63;;;;;;;;;;10447129;28;20680;-66
2023/12/01 15:21:47;;;;;;;94.43;37.93;;;;;;;;;;10447453;28;20294;-66
2023/12/01 15:26:47;;;;;;;95.33;37.03;;;;;;;;;;10447675;28;20184;-66
2023/12/01 15:31:48;;;;;;;95.20;37.20;;;;;;;;;;10455233;28;20695;-67
2023/12/01 15:36:48;;;;;;;139.43;59.00;;;;;;;;;;10451582;28;20207;-66
2023/12/01 15:41:48;;;;;;;109.23;47.07;;;;;;;;;;10446492;28;20219;-66
2023/12/01 15:46:48;;;;;;;108.20;44.97;;;;;;;;;;10448496;28;20193;-65
2023/12/01 15:51:49;;;;;;;94.63;41.90;;;;;;;;;;10452777;28;20631;-66
2023/12/01 15:56:50;;;;;;;101.07;40.37;;;;;;;;;;10444739;28;20194;-66
2023/12/01 16:01:50;;;;;;;106.77;42.63;;;;;;;;;;10445857;28;20208;-67
2023/12/01 16:06:50;;;;;;;106.57;43.10;;;;;;;;;;10453974;28;20667;-66
2023/12/01 16:11:51;;;;;;;106.63;42.53;;;;;;;;;;10443964;28;21130;-64
2023/12/01 16:16:53;;;;;;;109.27;39.80;;;;;;;;;;10446090;28;20724;-66
2023/12/01 16:21:54;;;;;;;102.10;39.20;;;;;;;;;;10450440;28;20212;-65
2023/12/01 16:26:55;;;;;;;101.37;39.40;;;;;;;;;;10449896;28;20249;-66
2023/12/01 16:31:55;;;;;;;110.27;40.10;;;;;;;;;;10445625;28;20215;-67
2023/12/01 16:36:55;;;;;;;111.13;38.73;;;;;;;;;;10447157;28;20192;-66
2023/12/01 16:41:55;;;;;;;120.47;40.87;;;;;;;;;;10446409;28;20286;-65
2023/12/01 16:46:55;;;;;;;113.93;40.60;;;;;;;;;;10453291;28;20188;-66
2023/12/01 16:51:56;;;;;;;110.00;38.77;;;;;;;;;;10453537;28;20216;-64
2023/12/01 16:56:56;;;;;;;117.60;40.20;;;;;;;;;;10451887;28;20192;-65
2023/12/01 17:01:56;;;;;;;135.77;41.90;;;;;;;;;;10452811;28;20208;-65
2023/12/01 17:06:56;;;;;;;137.57;43.33;;;;;;;;;;10459462;28;20184;-65
2023/12/01 17:11:56;;;;;;;166.70;43.73;;;;;;;;;;10454443;28;20778;-67
2023/12/01 17:16:56;;;;;;;172.07;43.57;;;;;;;;;;10452148;28;20188;-67
2023/12/01 17:21:57;;;;;;;151.97;44.53;;;;;;;;;;10454417;28;20207;-67
2023/12/01 17:26:57;;;;;;;145.60;40.20;;;;;;;;;;10456721;28;20714;-68
2023/12/01 17:32:00;;;;;;;129.90;39.40;;;;;;;;;;10454272;28;20338;-68
2023/12/01 17:37:00;;;;;;;145.80;40.43;;;;;;;;;;10458422;28;20321;-68
2023/12/01 17:42:00;;;;;;;183.67;38.97;;;;;;;;;;10462735;28;20290;-68
2023/12/01 17:47:00;;;;;;;132.27;37.07;;;;;;;;;;10454931;28;20196;-68
2023/12/01 17:52:00;;;;;;;162.70;40.07;;;;;;;;;;10454532;28;20224;-68
2023/12/01 17:57:01;;;;;;;164.80;40.47;;;;;;;;;;10454974;28;20261;-67
2023/12/01 18:02:01;;;;;;;155.83;40.60;;;;;;;;;;10461329;28;20208;-67
2023/12/01 18:07:02;;;;;;;168.80;41.00;;;;;;;;;;10454000;28;20274;-67
2023/12/01 18:12:02;;;;;;;202.83;43.30;;;;;;;;;;10453208;28;20326;-68
2023/12/01 18:17:03;;;;;;;180.77;39.07;;;;;;;;;;10454579;28;20246;-69
2023/12/01 18:22:03;;;;;;;172.70;42.83;;;;;;;;;;10467208;28;20207;-67
2023/12/01 18:27:03;;;;;;;162.50;41.40;;;;;;;;;;10453027;28;20192;-68
2023/12/01 18:32:04;;;;;;;171.10;39.37;;;;;;;;;;10452899;28;21001;-68
2023/12/01 18:37:04;;;;;;;207.70;37.90;;;;;;;;;;10452336;28;20198;-67
2023/12/01 18:42:05;;;;;;;227.17;42.37;;;;;;;;;;10460347;28;20204;-67
2023/12/01 18:47:05;;;;;;;214.23;43.67;;;;;;;;;;10451959;28;20242;-67
2023/12/01 18:52:05;;;;;;;203.30;45.17;;;;;;;;;;10451861;28;20219;-67
2023/12/01 18:57:07;;;;;;;170.70;42.53;;;;;;;;;;10453229;28;20192;-67
2023/12/01 19:02:07;;;;;;;216.87;41.63;;;;;;;;;;10457410;28;20722;-67
2023/12/01 19:07:07;;;;;;;302.03;41.57;;;;;;;;;;10451803;28;20192;-67
2023/12/01 19:12:08;;;;;;;255.80;39.97;;;;;;;;;;10450998;28;20235;-67
2023/12/01 19:17:08;;;;;;;291.97;42.70;;;;;;;;;;10458033;28;20672;-67
2023/12/01 19:22:08;;;;;;;277.50;37.57;;;;;;;;;;10451246;28;20230;-67
2023/12/01 19:27:08;;;;;;;196.97;34.43;;;;;;;;;;10451375;28;20187;-67
2023/12/01 19:32:08;;;;;;;117.93;35.87;;;;;;;;;;10451215;28;20226;-67
2023/12/01 19:37:08;;;;;;;137.30;36.23;;;;;;;;;;10458668;28;20195;-66
2023/12/01 19:42:09;;;;;;;113.77;36.77;;;;;;;;;;10451156;28;20227;-67
2023/12/01 19:47:09;;;;;;;112.27;34.67;;;;;;;;;;10450376;28;20249;-67
2023/12/01 19:52:09;;;;;;;131.47;35.30;;;;;;;;;;10450410;28;20230;-67
2023/12/01 19:57:09;;;;;;;91.57;31.00;;;;;;;;;;10458088;28;20191;-66
2023/12/01 20:02:10;;;;;;;157.10;33.03;;;;;;;;;;10450875;28;20292;-67
2023/12/01 20:07:10;;;;;;;99.93;32.07;;;;;;;;;;10450130;28;20216;-65
2023/12/01 20:12:10;;;;;;;107.27;35.20;;;;;;;;;;10449971;28;20228;-66
2023/12/01 20:17:10;;;;;;;133.67;48.53;;;;;;;;;;10457142;28;20196;-66
2023/12/01 20:22:10;;;;;;;108.73;35.07;;;;;;;;;;10449965;28;20295;-67
2023/12/01 20:27:10;;;;;;;121.17;35.23;;;;;;;;;;10453339;28;20192;-66
2023/12/01 20:32:10;;;;;;;134.23;43.87;;;;;;;;;;10459299;28;20704;-67
2023/12/01 20:37:11;;;;;;;124.90;39.53;;;;;;;;;;10463009;28;20581;-66
2023/12/01 20:42:11;;;;;;;136.53;41.40;;;;;;;;;;10457057;28;20214;-67
2023/12/01 20:47:11;;;;;;;113.70;37.20;;;;;;;;;;10457046;28;20282;-66
2023/12/01 20:52:11;;;;;;;105.43;37.63;;;;;;;;;;10463778;28;20293;-66
2023/12/01 20:57:12;;;;;;;110.27;39.13;;;;;;;;;;10460558;28;20198;-66
2023/12/01 21:02:12;;;;;;;116.33;39.90;;;;;;;;;;10456464;28;20461;-65
2023/12/01 21:07:12;;;;;;;101.13;36.60;;;;;;;;;;10456102;28;21574;-66
2023/12/01 21:12:13;;;;;;;104.50;35.80;;;;;;;;;;10463223;28;20240;-67
2023/12/01 21:17:14;;;;;;;92.50;34.30;;;;;;;;;;10455692;28;20450;-66
2023/12/01 21:22:14;;;;;;;101.10;35.83;;;;;;;;;;10456363;28;20206;-66
2023/12/01 21:27:14;;;;;;;87.90;35.10;;;;;;;;;;10455824;28;20790;-67
2023/12/01 21:32:14;;;;;;;100.80;35.27;;;;;;;;;;10462808;28;20216;-67
2023/12/01 21:37:15;;;;;;;103.83;34.23;;;;;;;;;;10454659;28;20349;-67
2023/12/01 21:42:15;;;;;;;87.13;32.23;;;;;;;;;;10455224;28;20246;-67
2023/12/01 21:47:16;;;;;;;83.30;32.10;;;;;;;;;;10454462;28;20198;-66
2023/12/01 21:52:16;;;;;;;87.47;34.23;;;;;;;;;;10462083;28;20227;-66
2023/12/01 21:57:17;;;;;;;104.83;35.97;;;;;;;;;;10455011;28;20299;-67
2023/12/01 22:02:19;;;;;;;103.67;36.10;;;;;;;;;;10454497;28;20247;-67
2023/12/01 22:07:19;;;;;;;118.47;38.40;;;;;;;;;;10456967;28;20190;-66
2023/12/01 22:12:20;;;;;;;108.30;40.33;;;;;;;;;;10458251;28;20228;-67
2023/12/01 22:17:20;;;;;;;140.63;41.92;;;;;;;;;;10453622;28;20191;-65
2023/12/01 22:22:20;;;;;;;120.10;39.43;;;;;;;;;;10453533;28;20230;-66
2023/12/01 22:27:21;;;;;;;88.70;36.33;;;;;;;;;;10460819;28;20737;-66
2023/12/01 22:32:21;;;;;;;106.87;40.13;;;;;;;;;;10453114;28;20234;-66
2023/12/01 22:37:21;;;;;;;101.00;38.47;;;;;;;;;;10453119;28;20194;-67
2023/12/01 22:42:22;;;;;;;95.40;37.87;;;;;;;;;;10453687;28;20212;-66
2023/12/01 22:47:22;;;;;;;90.23;38.23;;;;;;;;;;10455692;28;20601;-68
2023/12/01 22:52:22;;;;;;;84.57;35.17;;;;;;;;;;10464228;28;20226;-64
2023/12/01 22:57:22;;;;;;;90.23;36.70;;;;;;;;;;10461651;28;20245;-66
2023/12/01 23:02:23;;;;;;;88.73;35.57;;;;;;;;;;10452247;28;20211;-66
2023/12/01 23:07:23;;;;;;;92.37;36.17;;;;;;;;;;10459334;28;20573;-66
2023/12/01 23:12:23;;;;;;;87.27;35.63;;;;;;;;;;10451643;28;20259;-64
2023/12/01 23:17:23;;;;;;;83.23;35.80;;;;;;;;;;10452014;28;20191;-65
2023/12/01 23:22:23;;;;;;;78.93;34.73;;;;;;;;;;10451765;28;20265;-64
2023/12/01 23:27:23;;;;;;;74.07;31.80;;;;;;;;;;10458508;28;20206;-65
2023/12/01 23:32:24;;;;;;;79.37;30.60;;;;;;;;;;10451364;28;20226;-66
2023/12/01 23:37:24;;;;;;;60.67;28.57;;;;;;;;;;10451080;28;20176;-65
2023/12/01 23:42:24;;;;;;;64.17;28.03;;;;;;;;;;10455048;28;20247;-65
2023/12/01 23:47:24;;;;;;;64.63;28.30;;;;;;;;;;10454531;28;20184;-65
2023/12/01 23:52:24;;;;;;;64.77;26.60;;;;;;;;;;10450999;28;20593;-65
2023/12/01 23:57:25;;;;;;;63.17;24.87;;;;;;;;;;10450502;28;20188;-65
